createdAt,value
2022-09-27T00:11:24.258Z,87.57
2022-09-27T00:40:08.559Z,87.75
2022-09-27T01:08:52.530Z,89.48
2022-09-27T01:37:37.882Z,89.97
2022-09-27T02:06:23.561Z,85.37
2022-09-27T02:35:05.769Z,86.05
2022-09-27T03:03:46.724Z,84.82
2022-09-27T03:32:29.839Z,85.88
2022-09-27T04:01:08.684Z,84.16
2022-09-27T04:29:47.654Z,85.54
2022-09-27T04:58:22.678Z,84.76
2022-09-27T05:26:51.646Z,84.74
2022-09-27T05:55:20.564Z,85.34
2022-09-27T06:23:55.021Z,85.51
2022-09-27T06:52:13.500Z,84.76
2022-09-27T07:21:00.879Z,85.05
2022-09-27T07:49:11.087Z,82.24
2022-09-27T08:17:39.693Z,79.63
2022-09-27T08:46:12.499Z,77.81
2022-09-27T09:14:39.180Z,75.33
2022-09-27T09:43:20.103Z,69.95
2022-09-27T10:12:00.015Z,73.95
2022-09-27T11:08:33.718Z,75.94
2022-09-27T11:36:56.902Z,79.44
2022-09-27T12:05:16.124Z,77.11
2022-09-27T12:33:52.272Z,70.35
2022-09-27T13:02:25.822Z,68.48
2022-09-27T13:31:00.312Z,77.92
2022-09-27T13:59:32.616Z,78.42
2022-09-27T14:27:47.282Z,74.71
2022-09-27T14:56:11.590Z,73.43
2022-09-27T15:24:38.096Z,72.37
2022-09-27T15:53:01.933Z,77.33
2022-09-27T16:21:32.727Z,81.51
2022-09-27T16:49:59.668Z,82.39
2022-09-27T17:18:35.112Z,83.88
2022-09-27T17:46:51.111Z,82.78
2022-09-27T18:15:29.456Z,82.18
2022-09-27T18:43:51.453Z,82.43
2022-09-27T19:12:28.808Z,83.27
2022-09-27T19:40:47.003Z,83.41
2022-09-27T20:09:13.159Z,86
2022-09-27T21:39:48.096Z,87.73
2022-09-27T22:08:10.340Z,89.53
2022-09-27T23:04:52.541Z,91.91
2022-09-27T23:33:14.250Z,92.52
